Terminal Aerodrome Forecast
Issued by NWS

Home | Current Version | Previous Version | Text Only | Print | Product List | Glossary On
Versions: 1 2 3 4 5 6 7 8 9 10 11 12 13 14 15 16
000
FTUS45 KVEF 241724
TAFVGT
TAF
KVGT 241724Z 2418/2518 VRB05KT P6SM BKN110
     FM242200 04006KT P6SM SCT100
     FM250200 30006KT P6SM SCT080 BKN100
     FM250800 35008KT P6SM FEW080 SCT100=

USA.gov is the U.S. government's official web portal to all federal, state and local government web resources and services.